HSV weather

Alsavision Heliport
Miguel Hidalgo, Distrito Federal, Mexico

Public forecast

Using degrees Celsius for public forecast. Weather courtesy of forecast.io.

METAR (pilot weather report)

Closest report is Licenciado Benito Juarez International Airport, 7.3 nm (13.6 km) E. Retrieved 2019/06/20 22:45 UTC (20 minutes ago):

MMMX 202245Z 16008KT 6SM TS BKN020CB BKN080 OVC200 24/13 A3021 NOSIG RMK 8/963 HZY BINOVC OCNL LTGICCG SE S AND NW

TAF (pilot weather forecast)

Closest forecast is Licenciado Benito Juarez International Airport, 7.3 nm (13.6 km) E. Retrieved 2019/06/20 18:49 UTC (4 hours ago):

TAF MMMX 201642Z 2018/2124 03015KT P6SM SCT020 SCT100 TX26/2021Z TN15/2112Z FM202100 29015KT P6SM BKN020CB OVC100 TEMPO 2022/2102 4SM TSRA BECMG 2103/2104 24010KT FM210900 00000KT P6SM OVC020 FM211600 23010KT 4SM HZ SCT020 OVC100